createdAt,value
2022-08-26T00:00:49.948Z,49.7
2022-08-26T00:02:33.637Z,49.7
2022-08-26T00:04:17.349Z,49.7
2022-08-26T00:06:01.051Z,49.8
2022-08-26T00:07:44.748Z,49.8
2022-08-26T00:09:28.452Z,49.9
2022-08-26T00:11:12.159Z,49.9
2022-08-26T00:12:55.846Z,49.9
2022-08-26T00:14:39.568Z,50
2022-08-26T00:16:23.264Z,50
2022-08-26T00:18:06.962Z,50.1
2022-08-26T00:19:50.670Z,50
2022-08-26T00:21:34.369Z,50
2022-08-26T00:23:18.082Z,50
2022-08-26T00:25:01.894Z,50
2022-08-26T00:26:45.464Z,50
2022-08-26T00:28:29.172Z,50
2022-08-26T00:30:12.876Z,50
2022-08-26T00:31:56.574Z,50
2022-08-26T00:33:40.285Z,50
2022-08-26T00:35:23.978Z,49.9
2022-08-26T00:37:07.679Z,49.9
2022-08-26T00:38:51.384Z,49.9
2022-08-26T00:40:35.094Z,49.8
2022-08-26T00:42:18.791Z,49.8
2022-08-26T00:44:02.493Z,49.8
2022-08-26T00:45:46.207Z,49.8
2022-08-26T00:47:29.897Z,50.2
2022-08-26T00:49:13.606Z,50.7
2022-08-26T00:50:57.301Z,51
2022-08-26T00:52:41.016Z,50.9
2022-08-26T00:54:24.715Z,50.9
2022-08-26T00:56:08.407Z,50.8
2022-08-26T00:57:52.118Z,50.8
2022-08-26T00:59:35.812Z,50.9
2022-08-26T01:01:19.523Z,50.8
2022-08-26T01:03:03.215Z,50.7
2022-08-26T01:04:46.914Z,50.9
2022-08-26T01:06:30.618Z,50.9
2022-08-26T01:08:14.326Z,50.9
2022-08-26T01:09:58.031Z,50.8
2022-08-26T01:11:41.729Z,50.7
2022-08-26T01:13:25.434Z,50.6
2022-08-26T01:15:09.138Z,50.6
2022-08-26T01:16:52.839Z,50.5
2022-08-26T01:18:36.538Z,50.6
2022-08-26T01:20:20.244Z,50.6
2022-08-26T01:22:03.945Z,50.5
2022-08-26T01:23:47.640Z,50.6
2022-08-26T01:25:31.343Z,50.6
2022-08-26T01:27:15.050Z,50.5
2022-08-26T01:28:58.749Z,50.5
2022-08-26T01:30:42.459Z,50.5
2022-08-26T01:32:26.156Z,50.4
2022-08-26T01:34:09.873Z,50.4
2022-08-26T01:35:53.580Z,50.4
2022-08-26T01:37:37.258Z,50.4
2022-08-26T01:39:20.969Z,50.4
2022-08-26T01:41:04.670Z,50.4
2022-08-26T01:42:48.368Z,50.5
2022-08-26T01:44:32.080Z,50.5
2022-08-26T01:46:15.774Z,50.5
2022-08-26T01:47:59.475Z,50.6
2022-08-26T01:49:43.175Z,50.6
2022-08-26T01:51:26.893Z,50.6
2022-08-26T01:53:10.589Z,50.8
2022-08-26T01:54:54.291Z,50.8
2022-08-26T01:56:37.994Z,50.8
2022-08-26T01:58:21.695Z,50.7
2022-08-26T02:00:05.397Z,50.7
2022-08-26T02:01:49.091Z,50.7
2022-08-26T02:03:32.794Z,50.7
2022-08-26T02:05:16.499Z,50.8
2022-08-26T02:07:00.194Z,50.8
2022-08-26T02:08:43.899Z,50.9
2022-08-26T02:10:27.616Z,50.9
2022-08-26T02:12:11.300Z,50.9
2022-08-26T02:13:55.016Z,50.9
2022-08-26T02:15:38.717Z,50.9
2022-08-26T02:17:22.416Z,50.8
2022-08-26T02:19:06.116Z,50.8
2022-08-26T02:20:49.830Z,50.8
2022-08-26T02:22:33.511Z,50.8
2022-08-26T02:24:17.217Z,50.8
2022-08-26T02:26:00.925Z,50.8
2022-08-26T02:27:44.643Z,50.7
2022-08-26T02:29:28.321Z,50.6
2022-08-26T02:31:12.023Z,50.5
2022-08-26T02:32:55.727Z,50.4
2022-08-26T02:34:39.429Z,50.4
2022-08-26T02:36:23.135Z,50.5
2022-08-26T02:38:06.833Z,50.5
2022-08-26T02:39:50.531Z,50.5
2022-08-26T02:41:34.241Z,50.7
2022-08-26T02:43:17.945Z,50.8
2022-08-26T02:45:01.642Z,50.8
2022-08-26T02:46:45.350Z,50.8
2022-08-26T02:48:29.054Z,50.7
2022-08-26T02:50:12.757Z,50.6
2022-08-26T02:51:56.454Z,50.6
2022-08-26T02:53:40.158Z,50.6
2022-08-26T02:55:23.852Z,50.6
2022-08-26T02:57:07.555Z,50.7
2022-08-26T02:58:51.265Z,50.7
2022-08-26T03:00:34.966Z,50.7
2022-08-26T03:02:18.669Z,50.8
2022-08-26T03:04:02.363Z,50.8
2022-08-26T03:05:46.086Z,50.8
2022-08-26T03:07:29.780Z,50.8
2022-08-26T03:09:13.464Z,50.7
2022-08-26T03:10:57.169Z,50.6
2022-08-26T03:12:40.880Z,50.5
2022-08-26T03:14:24.567Z,50.5
2022-08-26T03:16:08.280Z,50.4
2022-08-26T03:17:51.974Z,50.5
2022-08-26T03:19:35.675Z,50.5
2022-08-26T03:21:19.380Z,50.5
2022-08-26T03:23:03.076Z,50.4
2022-08-26T03:24:46.781Z,50.4
2022-08-26T03:26:30.488Z,50.3
2022-08-26T03:28:14.182Z,50.3
2022-08-26T03:29:57.884Z,50.2
2022-08-26T03:31:41.589Z,50.2
2022-08-26T03:33:25.289Z,50.2
2022-08-26T03:35:08.986Z,50.3
2022-08-26T03:36:52.691Z,50.4
2022-08-26T03:38:36.395Z,50.3
2022-08-26T03:40:20.097Z,50.4
2022-08-26T03:42:03.794Z,50.4
2022-08-26T03:43:47.506Z,50.4
2022-08-26T03:45:31.204Z,50.4
2022-08-26T03:47:14.910Z,50.5
2022-08-26T03:48:58.602Z,50.5
2022-08-26T03:50:42.308Z,50.4
2022-08-26T03:52:25.693Z,50.5
2022-08-26T03:54:09.399Z,50.5
2022-08-26T03:55:53.102Z,50.5
2022-08-26T03:57:36.799Z,50.6
2022-08-26T03:59:20.502Z,50.5
2022-08-26T04:01:04.198Z,50.4
2022-08-26T04:02:47.904Z,50.3
2022-08-26T04:04:31.611Z,50.2
2022-08-26T04:06:15.306Z,50.2
2022-08-26T04:07:59.030Z,50.2
2022-08-26T04:09:42.715Z,50.2
2022-08-26T04:11:26.417Z,50.2
2022-08-26T04:13:10.111Z,50.2
2022-08-26T04:14:53.825Z,50.2
2022-08-26T04:16:37.515Z,50.3
2022-08-26T04:18:21.228Z,50.3
2022-08-26T04:20:04.923Z,50.3
2022-08-26T04:21:48.622Z,50.3
2022-08-26T04:23:32.323Z,50.3
2022-08-26T04:25:16.019Z,50.3
2022-08-26T04:26:59.724Z,50.3
2022-08-26T04:28:43.427Z,50.3
2022-08-26T04:30:27.121Z,50.3
2022-08-26T04:32:10.825Z,50.3
2022-08-26T04:33:54.531Z,50.3
2022-08-26T04:35:38.230Z,50.3
2022-08-26T04:37:21.936Z,50.3
2022-08-26T04:39:05.633Z,50.3
2022-08-26T04:40:49.339Z,50.3
2022-08-26T04:42:33.044Z,50.3
2022-08-26T04:44:16.739Z,50.4
2022-08-26T04:46:00.444Z,50.4
2022-08-26T04:47:44.147Z,50.3
2022-08-26T04:49:27.837Z,50
2022-08-26T04:51:11.545Z,49.8
2022-08-26T04:52:55.252Z,49.7
2022-08-26T04:54:38.949Z,49.6
2022-08-26T04:56:22.645Z,49.5
2022-08-26T04:58:06.351Z,49.4
2022-08-26T04:59:50.060Z,49.5
2022-08-26T05:01:33.759Z,49.6
2022-08-26T05:03:17.466Z,49.6
2022-08-26T05:05:01.161Z,49.5
2022-08-26T05:06:44.872Z,49.4
2022-08-26T05:08:28.558Z,49.3
2022-08-26T05:10:12.265Z,49.4
2022-08-26T05:11:55.968Z,49.3
2022-08-26T05:13:39.660Z,49.4
2022-08-26T05:15:23.401Z,49.4
2022-08-26T05:17:07.074Z,49.5
2022-08-26T05:18:50.776Z,49.5
2022-08-26T05:20:34.480Z,49.4
2022-08-26T05:22:18.178Z,49.4
2022-08-26T05:24:01.889Z,49.3
2022-08-26T05:25:45.584Z,49.3
2022-08-26T05:27:29.279Z,49.2
2022-08-26T05:29:12.979Z,49.1
2022-08-26T05:30:56.703Z,49
2022-08-26T05:32:40.385Z,49
2022-08-26T05:34:24.093Z,49
2022-08-26T05:36:07.792Z,49
2022-08-26T05:37:51.493Z,49
2022-08-26T05:39:35.208Z,49
2022-08-26T05:41:18.896Z,48.9
2022-08-26T05:43:02.617Z,49
2022-08-26T05:44:46.319Z,48.9
2022-08-26T05:46:30.000Z,48.9
2022-08-26T05:48:13.713Z,48.9
2022-08-26T05:49:57.414Z,48.8
2022-08-26T05:51:41.109Z,48.8
2022-08-26T05:53:24.820Z,48.8
2022-08-26T05:55:08.519Z,48.8
2022-08-26T05:56:52.214Z,48.8
2022-08-26T05:58:35.919Z,48.8
2022-08-26T06:00:19.628Z,48.8
2022-08-26T06:02:03.326Z,48.8
2022-08-26T06:03:47.035Z,48.7
2022-08-26T06:05:30.727Z,48.7
2022-08-26T06:07:14.428Z,48.7
2022-08-26T06:08:58.137Z,48.7
2022-08-26T06:10:41.832Z,48.6
2022-08-26T06:12:25.540Z,48.6
2022-08-26T06:14:09.240Z,48.6
2022-08-26T06:15:52.938Z,48.7
2022-08-26T06:17:36.648Z,48.6
2022-08-26T06:19:20.354Z,48.7
2022-08-26T06:21:04.063Z,48.7
2022-08-26T06:22:47.756Z,48.7
2022-08-26T06:24:31.452Z,48.7
2022-08-26T06:26:15.213Z,48.7
2022-08-26T06:27:58.862Z,48.6
2022-08-26T06:29:42.551Z,48.6
2022-08-26T06:31:26.262Z,48.6
2022-08-26T06:33:09.963Z,48.6
2022-08-26T06:34:53.657Z,48.6
2022-08-26T06:36:37.363Z,48.6
2022-08-26T06:38:21.062Z,48.5
2022-08-26T06:40:04.774Z,48.5
2022-08-26T06:41:48.472Z,48.5
2022-08-26T06:43:32.170Z,48.5
2022-08-26T06:45:15.874Z,48.5
2022-08-26T06:46:59.591Z,48.5
2022-08-26T06:48:43.280Z,48.5
2022-08-26T06:50:26.981Z,48.5
2022-08-26T06:52:10.688Z,48.5
2022-08-26T06:53:54.389Z,48.5
2022-08-26T06:55:38.096Z,48.5
2022-08-26T06:57:21.791Z,48.5
2022-08-26T06:59:05.496Z,48.5
2022-08-26T07:00:49.198Z,48.5
2022-08-26T07:02:32.912Z,48.5
2022-08-26T07:04:16.610Z,48.5
2022-08-26T07:06:00.308Z,48.5
2022-08-26T07:07:44.001Z,48.5
2022-08-26T07:09:27.712Z,48.5
2022-08-26T07:11:11.417Z,48.5
2022-08-26T07:12:55.104Z,48.5
2022-08-26T07:14:38.809Z,48.5
2022-08-26T07:16:22.514Z,48.5
2022-08-26T07:18:06.210Z,48.5
2022-08-26T07:19:49.916Z,48.5
2022-08-26T07:21:33.628Z,48.5
2022-08-26T07:23:17.325Z,48.5
2022-08-26T07:25:01.060Z,48.6
2022-08-26T07:26:44.721Z,48.5
2022-08-26T07:28:28.430Z,48.5
2022-08-26T07:30:12.137Z,48.5
2022-08-26T07:31:55.832Z,48.5
2022-08-26T07:33:39.528Z,48.5
2022-08-26T07:35:23.237Z,48.5
2022-08-26T07:37:06.956Z,48.5
2022-08-26T07:38:50.634Z,48.6
2022-08-26T07:40:34.346Z,48.6
2022-08-26T07:42:18.043Z,48.7
2022-08-26T07:44:01.756Z,48.8
2022-08-26T07:45:45.443Z,48.9
2022-08-26T07:47:29.170Z,48.9
2022-08-26T07:49:12.854Z,48.9
2022-08-26T07:50:56.542Z,48.9
2022-08-26T07:52:40.255Z,48.9
2022-08-26T07:54:23.957Z,48.9
2022-08-26T07:56:07.650Z,48.9
2022-08-26T07:57:51.371Z,48.9
2022-08-26T07:59:35.077Z,48.9
2022-08-26T08:01:18.777Z,48.9
2022-08-26T08:03:02.480Z,49
2022-08-26T08:04:46.169Z,49.1
2022-08-26T08:06:29.878Z,48.9
2022-08-26T08:08:13.575Z,48.9
2022-08-26T08:09:57.274Z,48.9
2022-08-26T08:11:40.977Z,48.9
2022-08-26T08:13:24.678Z,48.8
2022-08-26T08:15:08.379Z,48.7
2022-08-26T08:16:52.088Z,48.7
2022-08-26T08:18:35.781Z,48.7
2022-08-26T08:20:19.484Z,48.8
2022-08-26T08:22:03.194Z,48.7
2022-08-26T08:23:46.886Z,48.7
2022-08-26T08:25:30.594Z,48.7
2022-08-26T08:27:14.299Z,48.7
2022-08-26T08:28:57.997Z,48.7
2022-08-26T08:30:41.698Z,48.7
2022-08-26T08:32:25.402Z,48.7
2022-08-26T08:34:09.100Z,48.8
2022-08-26T08:35:52.818Z,48.8
2022-08-26T08:37:36.511Z,48.7
2022-08-26T08:39:20.208Z,48.7
2022-08-26T08:41:03.914Z,48.7
2022-08-26T08:42:47.628Z,48.7
2022-08-26T08:44:31.317Z,48.9
2022-08-26T08:46:15.026Z,48.7
2022-08-26T08:47:58.733Z,49
2022-08-26T08:49:42.430Z,48.9
2022-08-26T08:51:26.128Z,48.8
2022-08-26T08:53:09.829Z,48.8
2022-08-26T08:54:53.539Z,48.9
2022-08-26T08:56:37.239Z,49.3
2022-08-26T08:58:20.923Z,49.2
2022-08-26T09:00:04.646Z,48.9
2022-08-26T09:01:48.346Z,49
2022-08-26T09:03:32.040Z,49
2022-08-26T09:05:15.748Z,49.1
2022-08-26T09:06:59.446Z,49
2022-08-26T09:08:43.170Z,49
2022-08-26T09:10:26.861Z,49.1
2022-08-26T09:12:10.551Z,49.2
2022-08-26T09:13:54.265Z,49.4
2022-08-26T09:15:37.966Z,49.5
2022-08-26T09:17:21.669Z,49.6
2022-08-26T09:19:05.371Z,49.9
2022-08-26T09:20:49.070Z,49.7
2022-08-26T09:22:32.764Z,50
2022-08-26T09:24:16.469Z,49.9
2022-08-26T09:26:00.174Z,49.8
2022-08-26T09:27:43.894Z,50
2022-08-26T09:29:27.581Z,50.3
2022-08-26T09:31:11.285Z,50.4
2022-08-26T09:32:54.977Z,50.3
2022-08-26T09:36:22.399Z,50.5
2022-08-26T09:38:06.085Z,50.6
2022-08-26T09:39:49.790Z,50.7
2022-08-26T09:41:33.485Z,50.7
2022-08-26T09:43:17.190Z,50.8
2022-08-26T09:45:00.891Z,50.5
2022-08-26T09:46:44.594Z,50.6
2022-08-26T09:48:28.300Z,50.9
2022-08-26T09:50:11.999Z,51.1
2022-08-26T09:51:55.706Z,51.1
2022-08-26T09:53:39.415Z,50.9
2022-08-26T09:55:23.107Z,50.8
2022-08-26T09:57:06.829Z,50.8
2022-08-26T09:58:50.514Z,50.6
2022-08-26T10:00:34.205Z,50.5
2022-08-26T10:02:17.914Z,50.4
2022-08-26T10:04:01.622Z,50.4
2022-08-26T10:05:45.311Z,50.4
2022-08-26T10:07:29.021Z,50.4
2022-08-26T10:09:12.718Z,50.3
2022-08-26T10:10:56.423Z,50.3
2022-08-26T10:12:40.133Z,50.4
2022-08-26T10:14:23.826Z,50.4
2022-08-26T10:16:07.529Z,50.4
2022-08-26T10:17:51.238Z,50.3
2022-08-26T10:19:34.943Z,50.3
2022-08-26T10:21:18.646Z,50.2
2022-08-26T10:23:02.343Z,50.1
2022-08-26T10:24:46.047Z,50.1
2022-08-26T10:26:29.779Z,50
2022-08-26T10:28:13.445Z,50
2022-08-26T10:29:57.155Z,49.9
2022-08-26T10:31:40.859Z,49.8
2022-08-26T10:33:24.545Z,49.8
2022-08-26T10:35:08.253Z,49.7
2022-08-26T10:36:51.958Z,49.6
2022-08-26T10:38:35.661Z,49.5
2022-08-26T10:40:19.361Z,49.5
2022-08-26T10:42:03.062Z,49.4
2022-08-26T10:43:46.767Z,49.3
2022-08-26T10:45:30.472Z,49.3
2022-08-26T10:47:14.170Z,49.3
2022-08-26T10:48:57.870Z,49.3
2022-08-26T10:50:41.578Z,49.2
2022-08-26T10:52:25.278Z,49.1
2022-08-26T10:54:08.985Z,49.1
2022-08-26T10:55:52.704Z,49
2022-08-26T10:57:36.380Z,49
2022-08-26T10:59:20.086Z,48.9
2022-08-26T11:01:03.793Z,48.9
2022-08-26T11:02:47.495Z,48.8
2022-08-26T11:04:31.203Z,48.6
2022-08-26T11:06:14.889Z,48.4
2022-08-26T11:07:58.606Z,48.5
2022-08-26T11:09:42.304Z,48.4
2022-08-26T11:11:25.995Z,48.4
2022-08-26T11:13:09.702Z,48.4
2022-08-26T11:14:53.408Z,48.4
2022-08-26T11:16:37.114Z,48.3
2022-08-26T11:18:20.820Z,48.3
2022-08-26T11:20:04.512Z,48.3
2022-08-26T11:21:48.216Z,48.3
2022-08-26T11:23:31.917Z,48.3
2022-08-26T11:25:15.610Z,48.2
2022-08-26T11:26:59.318Z,48.3
2022-08-26T11:28:43.031Z,48.3
2022-08-26T11:30:26.721Z,47.8
2022-08-26T11:32:10.423Z,47.8
2022-08-26T11:33:54.120Z,47.8
2022-08-26T11:35:37.821Z,47.9
2022-08-26T11:37:21.533Z,47.9
2022-08-26T11:39:05.235Z,48
2022-08-26T11:40:48.933Z,47.9
2022-08-26T11:42:32.640Z,47.4
2022-08-26T11:44:16.332Z,47.5
2022-08-26T11:46:00.042Z,47.5
2022-08-26T11:47:43.735Z,47.6
2022-08-26T11:49:27.443Z,47.6
2022-08-26T11:51:11.145Z,47.6
2022-08-26T11:52:54.862Z,47.6
2022-08-26T11:54:38.549Z,47.5
2022-08-26T11:56:22.255Z,47.6
2022-08-26T11:58:05.945Z,47.6
2022-08-26T11:59:49.670Z,47.6
2022-08-26T12:01:33.368Z,47.7
2022-08-26T12:03:17.057Z,47.7
2022-08-26T12:05:00.761Z,47.6
2022-08-26T12:06:44.462Z,47.6
2022-08-26T12:08:28.158Z,47.7
2022-08-26T12:10:11.861Z,47.6
2022-08-26T12:11:55.563Z,47.5
2022-08-26T12:13:39.266Z,47.5
2022-08-26T12:15:22.966Z,47.5
2022-08-26T12:17:06.676Z,47.5
2022-08-26T12:18:50.380Z,47.5
2022-08-26T12:20:34.086Z,47.5
2022-08-26T12:22:17.773Z,47.5
2022-08-26T12:24:01.478Z,47.6
2022-08-26T12:25:45.178Z,47.6
2022-08-26T12:27:28.879Z,47.6
2022-08-26T12:29:12.601Z,47.7
2022-08-26T12:30:56.287Z,47.6
2022-08-26T12:32:39.994Z,47.7
2022-08-26T12:34:23.690Z,47.7
2022-08-26T12:36:07.415Z,47.7
2022-08-26T12:37:51.097Z,47.7
2022-08-26T12:39:34.788Z,47.7
2022-08-26T12:41:18.497Z,47.7
2022-08-26T12:43:02.200Z,47.7
2022-08-26T12:44:45.901Z,47.7
2022-08-26T12:46:29.604Z,47.6
2022-08-26T12:48:13.304Z,47.7
2022-08-26T12:49:57.014Z,47.7
2022-08-26T12:51:40.715Z,47.7
2022-08-26T12:53:24.424Z,47.5
2022-08-26T12:55:08.110Z,47.4
2022-08-26T12:56:51.816Z,47.4
2022-08-26T12:58:35.510Z,47.4
2022-08-26T13:00:19.213Z,47.2
2022-08-26T13:02:02.920Z,47.2
2022-08-26T13:03:46.652Z,47.3
2022-08-26T13:05:30.324Z,47.3
2022-08-26T13:07:14.016Z,47.3
2022-08-26T13:08:57.729Z,47.4
2022-08-26T13:10:41.422Z,47.5
2022-08-26T13:12:25.116Z,47.5
2022-08-26T13:14:08.820Z,47.6
2022-08-26T13:15:52.532Z,47.6
2022-08-26T13:17:36.238Z,47.7
2022-08-26T13:19:19.928Z,47.7
2022-08-26T13:21:03.632Z,47.7
2022-08-26T13:22:47.329Z,47.8
2022-08-26T13:24:31.042Z,47.8
2022-08-26T13:26:14.733Z,47.8
2022-08-26T13:27:58.438Z,47.8
2022-08-26T13:29:42.143Z,47.8
2022-08-26T13:31:25.833Z,47.8
2022-08-26T13:33:09.541Z,47.8
2022-08-26T13:34:53.250Z,47.8
2022-08-26T13:36:36.944Z,47.8
2022-08-26T13:38:20.655Z,47.8
2022-08-26T13:40:04.355Z,47.8
2022-08-26T13:41:48.049Z,47.9
2022-08-26T13:43:31.760Z,47.8
2022-08-26T13:45:15.448Z,47.9
2022-08-26T13:46:59.157Z,47.9
2022-08-26T13:48:42.862Z,48.1
2022-08-26T13:50:26.555Z,48.5
2022-08-26T13:52:10.258Z,48.7
2022-08-26T13:53:53.972Z,49
2022-08-26T13:55:37.665Z,49.2
2022-08-26T13:57:21.368Z,49.3
2022-08-26T13:59:05.071Z,49.4
2022-08-26T14:00:48.782Z,49.5
2022-08-26T14:02:32.477Z,49.4
2022-08-26T14:04:16.203Z,49.3
2022-08-26T14:05:59.902Z,49.4
2022-08-26T14:07:43.611Z,49.7
2022-08-26T14:09:27.296Z,49.9
2022-08-26T14:11:11.010Z,50.1
2022-08-26T14:12:54.725Z,50
2022-08-26T14:14:38.391Z,50
2022-08-26T14:16:22.092Z,50
2022-08-26T14:18:05.801Z,49.9
2022-08-26T14:19:49.504Z,49.9
2022-08-26T14:21:33.209Z,49.9
2022-08-26T14:23:16.904Z,49.9
2022-08-26T14:25:00.613Z,49.9
2022-08-26T14:26:44.311Z,49.9
2022-08-26T14:28:28.011Z,49.9
2022-08-26T14:30:11.712Z,49.9
2022-08-26T14:31:55.414Z,49.9
2022-08-26T14:33:39.116Z,49.9
2022-08-26T14:35:22.823Z,49.9
2022-08-26T14:37:06.513Z,49.9
2022-08-26T14:38:50.217Z,49.9
2022-08-26T14:40:33.928Z,50
2022-08-26T14:42:17.625Z,50.7
2022-08-26T14:44:01.326Z,51.2
2022-08-26T14:45:45.040Z,52.7
2022-08-26T14:47:28.736Z,53
2022-08-26T14:49:12.428Z,53
2022-08-26T14:50:56.139Z,52.9
2022-08-26T14:52:39.831Z,53.4
2022-08-26T14:54:23.555Z,53.7
2022-08-26T14:56:07.232Z,53.8
2022-08-26T14:57:50.939Z,54.5
2022-08-26T14:59:34.650Z,54.3
2022-08-26T15:01:18.334Z,54.2
2022-08-26T15:03:02.057Z,54.2
2022-08-26T15:04:45.749Z,54
2022-08-26T15:06:29.444Z,53.8
2022-08-26T15:08:13.148Z,53.8
2022-08-26T15:09:56.850Z,53.9
2022-08-26T15:11:40.560Z,54.1
2022-08-26T15:13:24.298Z,53.9
2022-08-26T15:15:07.951Z,54
2022-08-26T15:16:51.663Z,54
2022-08-26T15:18:35.363Z,53.9
2022-08-26T15:20:19.057Z,53.8
2022-08-26T15:22:02.766Z,53.6
2022-08-26T15:23:46.466Z,53.5
2022-08-26T15:25:30.163Z,53.5
2022-08-26T15:27:13.873Z,53.4
2022-08-26T15:28:57.568Z,53.4
2022-08-26T15:30:41.269Z,53.5
2022-08-26T15:32:24.981Z,53.6
2022-08-26T15:34:08.675Z,53.4
2022-08-26T15:35:52.400Z,53.3
2022-08-26T15:37:36.087Z,53.4
2022-08-26T15:39:19.790Z,53.4
2022-08-26T15:41:03.486Z,53.2
2022-08-26T15:42:47.194Z,53.1
2022-08-26T15:44:30.888Z,52.9
2022-08-26T15:47:58.292Z,52.7
2022-08-26T15:49:41.995Z,52.7
2022-08-26T15:51:25.703Z,52.6
2022-08-26T15:53:09.394Z,52.5
2022-08-26T15:54:53.101Z,52.5
2022-08-26T15:56:36.814Z,52.5
2022-08-26T15:58:20.503Z,52.4
2022-08-26T16:00:04.211Z,52.4
2022-08-26T16:01:47.914Z,52.3
2022-08-26T16:03:31.616Z,52.3
2022-08-26T16:05:15.320Z,52.3
2022-08-26T16:06:59.014Z,52.3
2022-08-26T16:08:42.722Z,52.2
2022-08-26T16:12:10.116Z,52.2
2022-08-26T16:13:53.827Z,52.1
2022-08-26T16:15:37.529Z,52.1
2022-08-26T16:17:21.231Z,52.1
2022-08-26T16:19:04.932Z,52
2022-08-26T16:20:48.635Z,52.1
2022-08-26T16:22:32.338Z,52.1
2022-08-26T16:24:16.041Z,52.1
2022-08-26T16:25:59.736Z,52.1
2022-08-26T16:27:43.441Z,52.1
2022-08-26T16:29:27.144Z,52.1
2022-08-26T16:31:10.843Z,52.1
2022-08-26T16:32:54.547Z,52.1
2022-08-26T16:34:38.248Z,52.1
2022-08-26T16:36:21.951Z,52.1
2022-08-26T16:38:05.682Z,52.1
2022-08-26T16:39:49.355Z,52.1
2022-08-26T16:41:33.059Z,52
2022-08-26T16:43:16.769Z,52.1
2022-08-26T16:45:00.501Z,52
2022-08-26T16:46:44.182Z,52.1
2022-08-26T16:48:27.870Z,52.1
2022-08-26T16:50:11.566Z,52.1
2022-08-26T16:51:55.272Z,52.1
2022-08-26T16:53:38.978Z,52.1
2022-08-26T16:55:22.671Z,52.1
2022-08-26T16:57:06.386Z,52.1
2022-08-26T16:58:50.081Z,52.1
2022-08-26T17:02:17.487Z,52.2
2022-08-26T17:04:01.184Z,52.2
2022-08-26T17:05:44.896Z,52.2
2022-08-26T17:07:28.606Z,52.2
2022-08-26T17:09:12.295Z,52.2
2022-08-26T17:10:55.994Z,52.2
2022-08-26T17:12:39.726Z,52.2
2022-08-26T17:14:23.397Z,52.3
2022-08-26T17:16:07.106Z,52.2
2022-08-26T17:17:50.817Z,52.2
2022-08-26T17:19:34.507Z,52.2
2022-08-26T17:21:18.212Z,52.3
2022-08-26T17:23:01.918Z,52.3
2022-08-26T17:24:45.614Z,52.3
2022-08-26T17:26:29.316Z,52.2
2022-08-26T17:28:13.021Z,52.2
2022-08-26T17:29:56.725Z,52.2
2022-08-26T17:31:40.433Z,52.2
2022-08-26T17:33:24.120Z,52.2
2022-08-26T17:35:07.826Z,52.2
2022-08-26T17:36:51.531Z,52.2
2022-08-26T17:38:35.233Z,52.2
2022-08-26T17:40:18.941Z,52.2
2022-08-26T17:42:02.651Z,52.2
2022-08-26T17:43:46.342Z,52.1
2022-08-26T17:45:30.042Z,52.2
2022-08-26T17:47:13.739Z,52.1
2022-08-26T17:48:57.443Z,52.1
2022-08-26T17:50:41.146Z,52.1
2022-08-26T17:52:24.841Z,52.1
2022-08-26T17:54:08.555Z,52.1
2022-08-26T17:55:52.246Z,52.1
2022-08-26T17:57:35.972Z,52.1
2022-08-26T17:59:19.659Z,52.1
2022-08-26T18:01:03.353Z,52.1
2022-08-26T18:02:47.064Z,52.1
2022-08-26T18:04:30.762Z,52.1
2022-08-26T18:06:14.460Z,52.1
2022-08-26T18:07:58.168Z,52.1
2022-08-26T18:09:41.867Z,52.1
2022-08-26T18:11:25.569Z,52.1
2022-08-26T18:13:09.280Z,52.1
2022-08-26T18:14:52.975Z,52.2
2022-08-26T18:16:36.681Z,52
2022-08-26T18:18:20.379Z,52.1
2022-08-26T18:20:04.072Z,52.1
2022-08-26T18:21:47.776Z,52.1
2022-08-26T18:23:31.484Z,52.1
2022-08-26T18:25:15.185Z,52
2022-08-26T18:26:58.887Z,52
2022-08-26T18:28:42.590Z,52
2022-08-26T18:30:26.292Z,51.9
2022-08-26T18:32:09.995Z,51.9
2022-08-26T18:33:53.703Z,51.9
2022-08-26T18:35:37.393Z,52
2022-08-26T18:37:21.107Z,51.9
2022-08-26T18:39:04.802Z,51.8
2022-08-26T18:40:48.503Z,51.9
2022-08-26T18:42:32.211Z,52
2022-08-26T18:44:15.909Z,52.1
2022-08-26T18:45:59.605Z,52.1
2022-08-26T18:47:43.311Z,52
2022-08-26T18:49:27.028Z,52
2022-08-26T18:51:10.716Z,52.1
2022-08-26T18:52:54.416Z,52
2022-08-26T18:54:38.119Z,51.9
2022-08-26T18:56:21.819Z,51.9
2022-08-26T18:58:05.523Z,51.9
2022-08-26T18:59:49.221Z,51.9
2022-08-26T19:01:32.925Z,51.9
2022-08-26T19:03:16.628Z,51.9
2022-08-26T19:05:00.344Z,51.9
2022-08-26T19:06:44.038Z,51.9
2022-08-26T19:08:27.739Z,51.9
2022-08-26T19:10:11.451Z,51.8
2022-08-26T19:11:55.142Z,51.8
2022-08-26T19:13:38.845Z,51.8
2022-08-26T19:15:22.550Z,51.8
2022-08-26T19:17:06.252Z,51.8
2022-08-26T19:18:49.950Z,51.8
2022-08-26T19:20:33.653Z,51.8
2022-08-26T19:22:17.352Z,51.8
2022-08-26T19:24:01.084Z,51.8
2022-08-26T19:25:44.773Z,51.8
2022-08-26T19:27:28.464Z,51.8
2022-08-26T19:29:12.168Z,51.8
2022-08-26T19:30:55.867Z,51.8
2022-08-26T19:32:39.575Z,51.8
2022-08-26T19:34:23.292Z,51.8
2022-08-26T19:37:50.681Z,51.8
2022-08-26T19:39:34.382Z,51.8
2022-08-26T19:41:18.078Z,51.8
2022-08-26T19:43:01.796Z,51.8
2022-08-26T19:44:45.482Z,51.8
2022-08-26T19:46:29.192Z,51.8
2022-08-26T19:48:12.898Z,51.8
2022-08-26T19:49:56.587Z,51.8
2022-08-26T19:51:40.287Z,51.8
2022-08-26T19:53:23.995Z,51.8
2022-08-26T19:55:07.685Z,51.8
2022-08-26T19:56:51.390Z,51.8
2022-08-26T19:58:35.103Z,51.8
2022-08-26T20:00:18.794Z,51.8
2022-08-26T20:02:02.501Z,51.8
2022-08-26T20:03:46.214Z,51.8
2022-08-26T20:05:29.918Z,51.8
2022-08-26T20:07:13.614Z,51.8
2022-08-26T20:08:57.311Z,51.8
2022-08-26T20:10:41.036Z,51.9
2022-08-26T20:12:24.753Z,51.8
2022-08-26T20:14:08.410Z,51.8
2022-08-26T20:15:52.117Z,51.8
2022-08-26T20:17:35.827Z,51.9
2022-08-26T20:19:19.526Z,51.9
2022-08-26T20:21:03.231Z,51.9
2022-08-26T20:22:46.926Z,51.9
2022-08-26T20:24:30.629Z,51.8
2022-08-26T20:26:14.334Z,51.9
2022-08-26T20:27:58.025Z,51.8
2022-08-26T20:29:41.730Z,51.9
2022-08-26T20:31:25.444Z,51.8
2022-08-26T20:33:09.139Z,51.8
2022-08-26T20:34:52.842Z,51.8
2022-08-26T20:36:36.540Z,51.8
2022-08-26T20:38:20.243Z,51.8
2022-08-26T20:40:03.947Z,51.8
2022-08-26T20:41:47.643Z,51.8
2022-08-26T20:43:31.348Z,51.8
2022-08-26T20:45:15.066Z,51.8
2022-08-26T20:46:58.749Z,51.8
2022-08-26T20:48:42.452Z,51.9
2022-08-26T20:50:26.160Z,51.9
2022-08-26T20:52:09.865Z,51.8
2022-08-26T20:53:53.563Z,51.8
2022-08-26T20:55:37.268Z,51.8
2022-08-26T20:57:20.970Z,51.8
2022-08-26T20:59:04.666Z,51.8
2022-08-26T21:00:48.370Z,51.8
2022-08-26T21:02:32.073Z,51.8
2022-08-26T21:04:15.778Z,51.8
2022-08-26T21:05:59.479Z,51.8
2022-08-26T21:07:43.182Z,51.9
2022-08-26T21:09:26.889Z,51.8
2022-08-26T21:11:10.582Z,51.8
2022-08-26T21:12:54.285Z,51.8
2022-08-26T21:14:37.994Z,51.8
2022-08-26T21:16:21.695Z,51.8
2022-08-26T21:18:05.402Z,51.8
2022-08-26T21:19:49.087Z,51.8
2022-08-26T21:21:32.818Z,51.8
2022-08-26T21:23:16.503Z,51.9
2022-08-26T21:25:00.197Z,51.9
2022-08-26T21:26:43.913Z,51.8
2022-08-26T21:28:27.608Z,51.9
2022-08-26T21:30:11.296Z,52
2022-08-26T21:31:55.001Z,51.8
2022-08-26T21:33:38.740Z,51.9
2022-08-26T21:35:22.406Z,51.8
2022-08-26T21:37:06.111Z,51.9
2022-08-26T21:38:49.816Z,51.9
2022-08-26T21:40:33.512Z,51.9
2022-08-26T21:42:17.217Z,52
2022-08-26T21:44:00.908Z,51.9
2022-08-26T21:45:44.614Z,51.9
2022-08-26T21:47:28.329Z,51.9
2022-08-26T21:49:12.016Z,51.8
2022-08-26T21:50:55.718Z,51.9
2022-08-26T21:52:39.421Z,51.9
2022-08-26T21:54:23.126Z,51.9
2022-08-26T21:56:06.821Z,52
2022-08-26T21:57:50.519Z,51.9
2022-08-26T21:59:34.233Z,51.9
2022-08-26T22:01:17.930Z,51.9
2022-08-26T22:03:01.630Z,51.9
2022-08-26T22:04:45.333Z,51.8
2022-08-26T22:06:29.032Z,51.9
2022-08-26T22:08:12.731Z,51.9
2022-08-26T22:09:56.440Z,51.9
2022-08-26T22:11:40.146Z,51.9
2022-08-26T22:13:23.852Z,51.9
2022-08-26T22:15:07.552Z,51.8
2022-08-26T22:16:51.245Z,51.9
2022-08-26T22:18:34.951Z,51.9
2022-08-26T22:20:18.658Z,51.9
2022-08-26T22:22:02.361Z,51.9
2022-08-26T22:23:46.059Z,51.9
2022-08-26T22:25:29.763Z,51.9
2022-08-26T22:27:13.462Z,51.8
2022-08-26T22:28:57.166Z,51.9
2022-08-26T22:30:40.870Z,51.9
2022-08-26T22:32:24.564Z,51.9
2022-08-26T22:34:08.275Z,51.9
2022-08-26T22:35:51.968Z,51.9
2022-08-26T22:37:35.673Z,52
2022-08-26T22:39:19.386Z,52
2022-08-26T22:41:03.081Z,51.9
2022-08-26T22:42:46.781Z,52
2022-08-26T22:44:30.503Z,52
2022-08-26T22:46:14.177Z,51.9
2022-08-26T22:47:57.891Z,51.9
2022-08-26T22:49:41.605Z,51.9
2022-08-26T22:51:25.293Z,52
2022-08-26T22:53:08.996Z,52.2
2022-08-26T22:54:52.708Z,53.2
2022-08-26T22:56:36.406Z,53.8
2022-08-26T22:58:20.110Z,54.3
2022-08-26T23:00:03.804Z,54.7
2022-08-26T23:01:47.515Z,55.1
2022-08-26T23:03:31.209Z,55.4
2022-08-26T23:05:14.915Z,55.6
2022-08-26T23:06:58.610Z,55.8
2022-08-26T23:08:42.319Z,55.8
2022-08-26T23:10:26.019Z,56
2022-08-26T23:12:09.723Z,56.2
2022-08-26T23:13:53.416Z,56.4
2022-08-26T23:15:37.121Z,56.7